createdAt,value
2022-12-15T00:01:14.895Z,1001.14
2022-12-15T00:06:22.148Z,1001.06
2022-12-15T00:11:29.313Z,1001.30
2022-12-15T00:16:36.596Z,1001.16
2022-12-15T00:21:43.719Z,1001.03
2022-12-15T00:26:50.924Z,1001.29
2022-12-15T00:31:58.279Z,1001.37
2022-12-15T00:37:05.334Z,1001.47
2022-12-15T00:42:12.515Z,1001.55
2022-12-15T00:47:19.772Z,1001.72
2022-12-15T00:52:26.952Z,1001.82
2022-12-15T00:57:34.138Z,1001.75
2022-12-15T01:02:41.552Z,1001.77
2022-12-15T01:07:49.507Z,1001.96
2022-12-15T01:12:55.834Z,1001.82
2022-12-15T01:18:03.132Z,1002.01
2022-12-15T01:23:10.296Z,1002.26
2022-12-15T01:28:17.515Z,1002.34
2022-12-15T01:33:24.740Z,1002.32
2022-12-15T01:38:31.925Z,1002.30
2022-12-15T01:43:39.225Z,1002.36
2022-12-15T01:48:46.463Z,1002.41
2022-12-15T01:53:53.640Z,1002.44
2022-12-15T01:59:00.826Z,1002.42
2022-12-15T02:04:08.057Z,1002.52
2022-12-15T02:09:15.174Z,1002.55
2022-12-15T02:14:22.323Z,1002.51
2022-12-15T02:19:29.578Z,1002.55
2022-12-15T02:24:36.784Z,1002.49
2022-12-15T02:29:44.067Z,1002.50
2022-12-15T02:34:51.289Z,1002.52
2022-12-15T02:39:58.480Z,1002.63
2022-12-15T02:45:05.621Z,1002.71
2022-12-15T02:50:12.912Z,1002.71
2022-12-15T02:55:20.080Z,1002.69
2022-12-15T03:00:27.245Z,1002.67
2022-12-15T03:05:34.484Z,1002.63
2022-12-15T03:10:41.694Z,1002.64
2022-12-15T03:15:48.907Z,1002.67
2022-12-15T03:20:56.407Z,1002.72
2022-12-15T03:26:03.293Z,1003.05
2022-12-15T03:31:10.475Z,1003.05
2022-12-15T03:36:17.743Z,1002.95
2022-12-15T03:41:24.905Z,1002.96
2022-12-15T03:46:32.082Z,1002.84
2022-12-15T03:51:39.338Z,1002.73
2022-12-15T03:56:46.524Z,1002.79
2022-12-15T04:01:53.859Z,1002.92
2022-12-15T04:07:00.963Z,1002.95
2022-12-15T04:12:08.149Z,1002.95
2022-12-15T04:17:15.454Z,1002.95
2022-12-15T04:22:22.589Z,1002.95
2022-12-15T04:27:29.828Z,1002.91
2022-12-15T04:32:36.970Z,1002.98
2022-12-15T04:37:44.210Z,1002.99
2022-12-15T04:42:51.394Z,1003.09
2022-12-15T04:47:58.593Z,1003.18
2022-12-15T04:53:05.871Z,1003.33
2022-12-15T04:58:13.103Z,1003.37
2022-12-15T05:03:20.307Z,1003.36
2022-12-15T05:08:27.542Z,1003.33
2022-12-15T05:13:35.095Z,1003.21
2022-12-15T05:18:41.908Z,1003.15
2022-12-15T05:23:49.151Z,1003.24
2022-12-15T05:28:56.389Z,1003.42
2022-12-15T05:34:05.797Z,1003.46
2022-12-15T05:39:10.963Z,1003.35
2022-12-15T05:44:18.111Z,1003.43
2022-12-15T05:49:25.337Z,1003.49
2022-12-15T05:54:32.588Z,1003.53
2022-12-15T05:59:39.761Z,1003.57
2022-12-15T06:04:47.041Z,1003.48
2022-12-15T06:09:54.209Z,1003.50
2022-12-15T06:15:01.369Z,1003.53
2022-12-15T06:20:08.584Z,1003.55
2022-12-15T06:25:15.845Z,1003.52
2022-12-15T06:30:22.995Z,1003.47
2022-12-15T06:35:30.193Z,1003.54
2022-12-15T06:40:38.265Z,1003.56
2022-12-15T06:45:44.551Z,1003.61
2022-12-15T06:50:51.759Z,1003.71
2022-12-15T06:55:59.015Z,1003.71
2022-12-15T07:01:06.198Z,1003.74
2022-12-15T07:06:13.397Z,1003.75
2022-12-15T07:11:20.663Z,1003.83
2022-12-15T07:16:27.864Z,1003.77
2022-12-15T07:21:34.921Z,1003.80
2022-12-15T07:26:42.152Z,1003.83
2022-12-15T07:31:49.413Z,1003.91
2022-12-15T07:36:56.529Z,1003.99
2022-12-15T07:42:03.761Z,1004.09
2022-12-15T07:47:10.930Z,1004.27
2022-12-15T07:52:18.144Z,1004.39
2022-12-15T07:57:25.380Z,1004.47
2022-12-15T08:02:32.830Z,1004.46
2022-12-15T08:07:39.749Z,1004.35
2022-12-15T08:12:47.012Z,1004.38
2022-12-15T08:17:54.145Z,1004.37
2022-12-15T08:23:01.323Z,1004.53
2022-12-15T08:28:08.500Z,1004.46
2022-12-15T08:33:15.687Z,1004.52
2022-12-15T08:38:22.902Z,1004.55
2022-12-15T08:43:30.567Z,1004.62
2022-12-15T08:48:37.313Z,1004.72
2022-12-15T08:53:45.104Z,1004.69
2022-12-15T08:58:51.730Z,1004.64
2022-12-15T09:03:58.994Z,1004.52
2022-12-15T09:09:06.152Z,1004.41
2022-12-15T09:14:13.362Z,1004.37
2022-12-15T09:19:20.532Z,1004.38
2022-12-15T09:24:34.658Z,1004.29
2022-12-15T09:29:34.947Z,1004.44
2022-12-15T09:34:42.159Z,1004.46
2022-12-15T09:39:49.351Z,1004.50
2022-12-15T09:44:56.627Z,1004.42
2022-12-15T09:50:03.963Z,1004.52
2022-12-15T09:55:11.195Z,1004.40
2022-12-15T10:00:18.453Z,1004.33
2022-12-15T10:05:38.111Z,1004.16
2022-12-15T10:10:32.743Z,1004.08
2022-12-15T10:15:40.037Z,1004.11
2022-12-15T10:20:48.502Z,1004.13
2022-12-15T10:25:54.384Z,1004.09
2022-12-15T10:31:01.727Z,1004.08
2022-12-15T10:36:08.775Z,1004.19
2022-12-15T10:41:15.945Z,1004.21
2022-12-15T10:46:23.217Z,1004.13
2022-12-15T10:51:30.381Z,1004.06
2022-12-15T10:56:37.583Z,1003.84
2022-12-15T11:01:45.049Z,1003.74
2022-12-15T11:06:52.011Z,1003.67
2022-12-15T11:11:59.197Z,1003.66
2022-12-15T11:17:06.379Z,1003.61
2022-12-15T11:22:13.541Z,1003.50
2022-12-15T11:27:20.751Z,1003.38
2022-12-15T11:32:27.963Z,1003.46
2022-12-15T11:37:36.802Z,1003.34
2022-12-15T11:42:42.351Z,1003.38
2022-12-15T11:47:49.590Z,1003.31
2022-12-15T11:52:56.778Z,1003.25
2022-12-15T11:58:04.006Z,1003.21
2022-12-15T12:03:11.221Z,1003.04
2022-12-15T12:08:18.402Z,1002.93
2022-12-15T12:13:25.612Z,1002.88
2022-12-15T12:18:33.499Z,1002.96
2022-12-15T12:23:40.113Z,1002.97
2022-12-15T12:28:48.798Z,1002.85
2022-12-15T12:33:54.540Z,1002.83
2022-12-15T12:39:01.884Z,1002.82
2022-12-15T12:44:09.140Z,1002.72
2022-12-15T12:49:21.339Z,1002.66
2022-12-15T12:54:23.521Z,1002.63
2022-12-15T12:59:30.751Z,1002.57
2022-12-15T13:04:37.957Z,1002.46
2022-12-15T13:09:45.233Z,1002.45
2022-12-15T13:14:52.418Z,1002.31
2022-12-15T13:19:59.623Z,1002.25
2022-12-15T13:25:06.745Z,1002.21
2022-12-15T13:30:14.112Z,1002.11
2022-12-15T13:35:21.190Z,1002.05
2022-12-15T13:40:28.366Z,1002.06
2022-12-15T13:45:35.676Z,1001.99
2022-12-15T13:50:42.802Z,1002.04
2022-12-15T13:55:51.171Z,1001.93
2022-12-15T14:00:57.428Z,1001.93
2022-12-15T14:06:04.638Z,1002.01
2022-12-15T14:11:46.089Z,1001.97
2022-12-15T14:16:19.147Z,1001.90
2022-12-15T14:21:26.301Z,1001.94
2022-12-15T14:26:33.524Z,1001.90
2022-12-15T14:31:40.866Z,1001.77
2022-12-15T14:36:47.946Z,1001.85
2022-12-15T14:41:55.123Z,1001.68
2022-12-15T14:47:02.325Z,1001.73
2022-12-15T14:52:09.558Z,1001.78
2022-12-15T14:57:16.761Z,1001.69
2022-12-15T15:02:24.081Z,1001.65
2022-12-15T15:07:31.162Z,1001.61
2022-12-15T15:12:38.355Z,1001.59
2022-12-15T15:17:45.567Z,1001.55
2022-12-15T15:22:52.793Z,1001.49
2022-12-15T15:27:59.982Z,1001.47
2022-12-15T15:33:07.183Z,1001.52
2022-12-15T15:38:14.410Z,1001.43
2022-12-15T15:43:21.598Z,1001.52
2022-12-15T15:48:29.309Z,1001.61
2022-12-15T15:53:36.044Z,1001.56
2022-12-15T15:58:43.202Z,1001.49
2022-12-15T16:03:50.486Z,1001.53
2022-12-15T16:08:57.671Z,1001.42
2022-12-15T16:14:04.845Z,1001.42
2022-12-15T16:19:12.062Z,1001.23
2022-12-15T16:24:19.347Z,1001.20
2022-12-15T16:29:26.448Z,1001.11
2022-12-15T16:34:33.618Z,1001.05
2022-12-15T16:39:41.045Z,1001.00
2022-12-15T16:44:48.226Z,1000.97
2022-12-15T16:49:55.460Z,1000.91
2022-12-15T16:55:02.674Z,1000.96
2022-12-15T17:00:09.902Z,1001.05
2022-12-15T17:05:17.463Z,1001.09
2022-12-15T17:10:25.116Z,1001.07
2022-12-15T17:15:32.555Z,1001.02
2022-12-15T17:20:39.681Z,1000.97
2022-12-15T17:26:18.501Z,1000.90
2022-12-15T17:30:54.153Z,1000.87
2022-12-15T17:36:01.304Z,1000.80
2022-12-15T17:41:08.712Z,1000.65
2022-12-15T17:46:16.194Z,1000.58
2022-12-15T17:51:23.439Z,1000.55
2022-12-15T17:56:30.695Z,1000.48
2022-12-15T18:01:37.971Z,1000.44
2022-12-15T18:06:45.047Z,1000.33
2022-12-15T18:11:52.575Z,1000.24
2022-12-15T18:16:59.870Z,1000.20
2022-12-15T18:22:07.372Z,1000.11
2022-12-15T18:27:15.007Z,1000.13
2022-12-15T18:32:22.618Z,1000.04
2022-12-15T18:37:30.312Z,1000.02
2022-12-15T18:42:38.059Z,999.95
2022-12-15T18:47:45.542Z,999.93
2022-12-15T18:52:53.056Z,999.92
2022-12-15T18:58:00.416Z,999.96
2022-12-15T19:03:08.084Z,999.99
2022-12-15T19:08:15.268Z,1000.00
2022-12-15T19:13:22.816Z,999.92
2022-12-15T19:18:30.412Z,999.86
2022-12-15T19:23:37.730Z,999.85
2022-12-15T19:28:44.947Z,999.82
2022-12-15T19:33:52.451Z,999.85
2022-12-15T19:39:01.069Z,999.94
2022-12-15T19:44:08.803Z,999.95
2022-12-15T19:49:16.195Z,1000.00
2022-12-15T19:54:23.816Z,999.96
2022-12-15T19:59:31.450Z,999.88
2022-12-15T20:04:38.936Z,999.88
2022-12-15T20:09:46.282Z,999.83
2022-12-15T20:14:53.513Z,999.84
2022-12-15T20:20:00.645Z,999.69
2022-12-15T20:25:07.872Z,999.73
2022-12-15T20:30:15.106Z,999.72
2022-12-15T20:35:22.328Z,999.70
2022-12-15T20:40:29.545Z,999.71
2022-12-15T20:45:36.881Z,999.81
2022-12-15T20:50:43.979Z,999.78
2022-12-15T20:55:51.198Z,999.84
2022-12-15T21:00:58.832Z,999.87
2022-12-15T21:06:06.031Z,999.91
2022-12-15T21:11:13.273Z,999.97
2022-12-15T21:16:20.611Z,1000.01
2022-12-15T21:21:27.733Z,999.98
2022-12-15T21:26:34.888Z,1000.13
2022-12-15T21:31:42.195Z,1000.12
2022-12-15T21:36:49.365Z,1000.08
2022-12-15T21:41:56.605Z,1000.16
2022-12-15T21:47:03.899Z,1000.18
2022-12-15T21:52:11.083Z,1000.21
2022-12-15T21:57:18.293Z,1000.26
2022-12-15T22:02:25.792Z,1000.29
2022-12-15T22:07:32.781Z,1000.36
2022-12-15T22:12:40.033Z,1000.40
2022-12-15T22:17:47.355Z,1000.42
2022-12-15T22:22:54.595Z,1000.46
2022-12-15T22:28:01.807Z,1000.61
2022-12-15T22:33:09.086Z,1000.66
2022-12-15T22:38:16.303Z,1000.76
2022-12-15T22:43:23.522Z,1000.71
2022-12-15T22:48:31.176Z,1000.77
2022-12-15T22:53:37.951Z,1000.76
2022-12-15T22:58:45.140Z,1000.85
2022-12-15T23:03:52.530Z,1000.89
2022-12-15T23:08:59.552Z,1000.89
2022-12-15T23:14:06.774Z,1000.86
2022-12-15T23:19:13.981Z,1000.86
2022-12-15T23:24:21.086Z,1000.81
2022-12-15T23:29:28.320Z,1000.85
2022-12-15T23:34:35.564Z,1000.90
2022-12-15T23:39:42.771Z,1000.91
2022-12-15T23:44:50.007Z,1000.95
2022-12-15T23:49:57.225Z,1001.00
2022-12-15T23:55:04.447Z,1001.02
